sensor_id;sensor_type;location;lat;lon;timestamp;pressure;altitude;pressure_sealevel;temperature;humidity
61742;BME280;47650;49.848;9.620;2022-07-09T00:00:23;100756.16;;;16.86;58.56
61742;BME280;47650;49.848;9.620;2022-07-09T00:02:58;100761.25;;;16.80;58.90
61742;BME280;47650;49.848;9.620;2022-07-09T00:05:23;100758.38;;;16.73;58.93
61742;BME280;47650;49.848;9.620;2022-07-09T00:07:49;100764.53;;;16.65;59.15
61742;BME280;47650;49.848;9.620;2022-07-09T00:10:15;100765.13;;;16.59;59.33
61742;BME280;47650;49.848;9.620;2022-07-09T00:12:40;100752.31;;;16.45;59.37
61742;BME280;47650;49.848;9.620;2022-07-09T00:15:06;100763.03;;;16.45;59.61
61742;BME280;47650;49.848;9.620;2022-07-09T00:17:31;100717.72;;;16.07;59.81
61742;BME280;47650;49.848;9.620;2022-07-09T00:19:58;100745.47;;;16.24;59.78
61742;BME280;47650;49.848;9.620;2022-07-09T00:22:24;100760.69;;;16.24;60.12
61742;BME280;47650;49.848;9.620;2022-07-09T00:24:49;100697.56;;;15.77;60.14
61742;BME280;47650;49.848;9.620;2022-07-09T00:27:15;100755.56;;;16.12;60.41
61742;BME280;47650;49.848;9.620;2022-07-09T00:29:41;100705.84;;;15.74;60.43
61742;BME280;47650;49.848;9.620;2022-07-09T00:32:06;100762.81;;;16.02;60.63
61742;BME280;47650;49.848;9.620;2022-07-09T00:34:35;100740.97;;;15.89;60.67
61742;BME280;47650;49.848;9.620;2022-07-09T00:37:03;100762.91;;;15.92;60.81
61742;BME280;47650;49.848;9.620;2022-07-09T00:39:31;100737.94;;;15.74;60.85
61742;BME280;47650;49.848;9.620;2022-07-09T00:42:04;100760.38;;;15.91;61.18
61742;BME280;47650;49.848;9.620;2022-07-09T00:44:29;100734.03;;;15.78;61.34
61742;BME280;47650;49.848;9.620;2022-07-09T00:46:55;100753.56;;;15.96;61.44
61742;BME280;47650;49.848;9.620;2022-07-09T00:49:20;100741.22;;;15.95;61.63
61742;BME280;47650;49.848;9.620;2022-07-09T00:51:46;100745.38;;;16.16;61.51
61742;BME280;47650;49.848;9.620;2022-07-09T00:54:12;100745.47;;;16.24;61.41
61742;BME280;47650;49.848;9.620;2022-07-09T00:56:39;100749.56;;;16.36;61.23
61742;BME280;47650;49.848;9.620;2022-07-09T00:59:06;100733.22;;;16.40;61.10
61742;BME280;47650;49.848;9.620;2022-07-09T01:01:38;100733.59;;;16.45;60.83
61742;BME280;47650;49.848;9.620;2022-07-09T01:04:04;100735.31;;;16.54;60.65
61742;BME280;47650;49.848;9.620;2022-07-09T01:06:29;100721.41;;;16.50;60.51
61742;BME280;47650;49.848;9.620;2022-07-09T01:08:55;100733.06;;;16.67;60.53
61742;BME280;47650;49.848;9.620;2022-07-09T01:11:21;100728.38;;;16.69;60.44
61742;BME280;47650;49.848;9.620;2022-07-09T01:13:46;100730.44;;;16.76;60.45
61742;BME280;47650;49.848;9.620;2022-07-09T01:16:21;100728.38;;;16.87;59.96
61742;BME280;47650;49.848;9.620;2022-07-09T01:18:57;100727.88;;;16.92;59.81
61742;BME280;47650;49.848;9.620;2022-07-09T01:21:22;100726.72;;;16.95;59.70
61742;BME280;47650;49.848;9.620;2022-07-09T01:23:49;100724.72;;;16.97;59.76
61742;BME280;47650;49.848;9.620;2022-07-09T01:26:17;100701.91;;;16.84;59.52
61742;BME280;47650;49.848;9.620;2022-07-09T01:28:47;100674.00;;;16.69;59.40
61742;BME280;47650;49.848;9.620;2022-07-09T01:31:14;100722.22;;;16.95;59.28
61742;BME280;47650;49.848;9.620;2022-07-09T01:33:40;100720.19;;;16.89;59.44
61742;BME280;47650;49.848;9.620;2022-07-09T01:36:07;100681.66;;;16.64;59.36
61742;BME280;47650;49.848;9.620;2022-07-09T01:41:48;100693.09;;;16.74;60.17
61742;BME280;47650;49.848;9.620;2022-07-09T01:44:13;100694.47;;;16.78;60.02
61742;BME280;47650;49.848;9.620;2022-07-09T01:46:38;100706.78;;;16.89;60.21
61742;BME280;47650;49.848;9.620;2022-07-09T01:49:13;100707.97;;;16.95;59.93
61742;BME280;47650;49.848;9.620;2022-07-09T01:51:46;100698.47;;;17.00;59.92
61742;BME280;47650;49.848;9.620;2022-07-09T01:54:18;100664.41;;;16.84;60.00
61742;BME280;47650;49.848;9.620;2022-07-09T01:56:44;100689.44;;;17.01;59.86
61742;BME280;47650;49.848;9.620;2022-07-09T01:59:09;100696.13;;;17.05;59.81
61742;BME280;47650;49.848;9.620;2022-07-09T02:01:34;100677.69;;;16.94;59.29
61742;BME280;47650;49.848;9.620;2022-07-09T02:04:00;100695.63;;;17.02;59.20
61742;BME280;47650;49.848;9.620;2022-07-09T02:06:27;100700.81;;;17.03;59.46
61742;BME280;47650;49.848;9.620;2022-07-09T02:08:58;100691.25;;;17.01;59.48
61742;BME280;47650;49.848;9.620;2022-07-09T02:11:24;100690.88;;;16.96;59.40
61742;BME280;47650;49.848;9.620;2022-07-09T02:13:51;100687.34;;;16.87;59.78
61742;BME280;47650;49.848;9.620;2022-07-09T02:16:16;100686.25;;;16.71;60.43
61742;BME280;47650;49.848;9.620;2022-07-09T02:18:41;100691.25;;;16.66;60.90
61742;BME280;47650;49.848;9.620;2022-07-09T02:21:07;100688.81;;;16.55;60.82
61742;BME280;47650;49.848;9.620;2022-07-09T02:23:33;100696.09;;;16.45;61.15
61742;BME280;47650;49.848;9.620;2022-07-09T02:25:58;100687.66;;;16.31;61.46
61742;BME280;47650;49.848;9.620;2022-07-09T02:28:23;100692.81;;;16.25;61.49
61742;BME280;47650;49.848;9.620;2022-07-09T02:30:56;100695.09;;;16.20;61.86
61742;BME280;47650;49.848;9.620;2022-07-09T02:33:23;100692.22;;;16.13;61.99
61742;BME280;47650;49.848;9.620;2022-07-09T02:35:49;100678.59;;;16.06;61.96
61742;BME280;47650;49.848;9.620;2022-07-09T02:38:16;100692.34;;;16.11;62.22
61742;BME280;47650;49.848;9.620;2022-07-09T02:40:44;100697.41;;;16.14;62.23
61742;BME280;47650;49.848;9.620;2022-07-09T02:43:12;100691.19;;;16.14;62.13
61742;BME280;47650;49.848;9.620;2022-07-09T02:45:37;100689.53;;;16.13;62.15
61742;BME280;47650;49.848;9.620;2022-07-09T02:48:03;100698.53;;;16.12;62.10
61742;BME280;47650;49.848;9.620;2022-07-09T02:50:29;100694.66;;;16.06;62.27
61742;BME280;47650;49.848;9.620;2022-07-09T02:53:02;100690.78;;;16.01;62.29
61742;BME280;47650;49.848;9.620;2022-07-09T02:55:28;100689.69;;;15.93;62.42
61742;BME280;47650;49.848;9.620;2022-07-09T02:57:56;100665.38;;;15.69;62.49
61742;BME280;47650;49.848;9.620;2022-07-09T03:00:21;100675.19;;;15.78;62.53
61742;BME280;47650;49.848;9.620;2022-07-09T03:02:46;100685.25;;;15.84;62.70
61742;BME280;47650;49.848;9.620;2022-07-09T03:05:12;100684.97;;;15.87;62.85
61742;BME280;47650;49.848;9.620;2022-07-09T03:07:37;100687.34;;;15.90;62.93
61742;BME280;47650;49.848;9.620;2022-07-09T03:10:08;100698.41;;;15.95;62.72
61742;BME280;47650;49.848;9.620;2022-07-09T03:12:34;100687.00;;;15.93;62.63
61742;BME280;47650;49.848;9.620;2022-07-09T03:14:59;100684.03;;;15.96;62.56
61742;BME280;47650;49.848;9.620;2022-07-09T03:17:25;100697.72;;;15.93;62.44
61742;BME280;47650;49.848;9.620;2022-07-09T03:19:59;100674.56;;;15.84;62.66
61742;BME280;47650;49.848;9.620;2022-07-09T03:22:24;100669.25;;;15.74;62.78
61742;BME280;47650;49.848;9.620;2022-07-09T03:24:50;100688.91;;;15.83;62.84
61742;BME280;47650;49.848;9.620;2022-07-09T03:27:19;100682.50;;;15.76;62.83
61742;BME280;47650;49.848;9.620;2022-07-09T03:29:44;100662.59;;;15.60;62.75
61742;BME280;47650;49.848;9.620;2022-07-09T03:32:09;100677.75;;;15.70;62.78
61742;BME280;47650;49.848;9.620;2022-07-09T03:34:35;100676.69;;;15.63;63.06
61742;BME280;47650;49.848;9.620;2022-07-09T03:37:01;100667.19;;;15.50;62.99
61742;BME280;47650;49.848;9.620;2022-07-09T03:39:26;100654.50;;;15.34;63.21
61742;BME280;47650;49.848;9.620;2022-07-09T03:41:57;100679.19;;;15.46;63.44
61742;BME280;47650;49.848;9.620;2022-07-09T03:44:29;100625.69;;;15.10;63.59
61742;BME280;47650;49.848;9.620;2022-07-09T03:46:54;100656.78;;;15.29;63.79
61742;BME280;47650;49.848;9.620;2022-07-09T03:49:19;100676.25;;;15.39;63.90
61742;BME280;47650;49.848;9.620;2022-07-09T03:51:47;100670.38;;;15.36;64.13
61742;BME280;47650;49.848;9.620;2022-07-09T03:54:12;100669.69;;;15.34;63.95
61742;BME280;47650;49.848;9.620;2022-07-09T03:56:41;100675.44;;;15.39;63.90
61742;BME280;47650;49.848;9.620;2022-07-09T03:59:16;100667.41;;;15.39;63.99
61742;BME280;47650;49.848;9.620;2022-07-09T04:01:43;100667.84;;;15.34;63.99
61742;BME280;47650;49.848;9.620;2022-07-09T04:04:09;100639.25;;;15.27;64.16
61742;BME280;47650;49.848;9.620;2022-07-09T04:06:44;100659.09;;;15.42;64.15
61742;BME280;47650;49.848;9.620;2022-07-09T04:09:12;100660.31;;;15.30;64.16
61742;BME280;47650;49.848;9.620;2022-07-09T04:11:43;100680.34;;;15.61;63.97
61742;BME280;47650;49.848;9.620;2022-07-09T04:14:08;100676.50;;;15.64;63.67
61742;BME280;47650;49.848;9.620;2022-07-09T04:16:33;100673.50;;;15.77;63.54
61742;BME280;47650;49.848;9.620;2022-07-09T04:18:59;100653.53;;;15.71;63.55
61742;BME280;47650;49.848;9.620;2022-07-09T04:21:24;100682.66;;;15.92;63.42
61742;BME280;47650;49.848;9.620;2022-07-09T04:23:51;100681.44;;;16.05;63.13
61742;BME280;47650;49.848;9.620;2022-07-09T04:26:23;100625.31;;;15.87;63.00
61742;BME280;47650;49.848;9.620;2022-07-09T04:28:49;100677.59;;;16.25;62.66
61742;BME280;47650;49.848;9.620;2022-07-09T04:31:16;100678.63;;;16.32;62.45
61742;BME280;47650;49.848;9.620;2022-07-09T04:33:44;100670.28;;;16.35;62.33
61742;BME280;47650;49.848;9.620;2022-07-09T04:36:10;100678.41;;;16.52;62.22
61742;BME280;47650;49.848;9.620;2022-07-09T04:38:35;100681.81;;;16.62;62.05
61742;BME280;47650;49.848;9.620;2022-07-09T04:41:01;100679.34;;;16.69;61.93
61742;BME280;47650;49.848;9.620;2022-07-09T04:43:26;100659.41;;;16.63;61.66
61742;BME280;47650;49.848;9.620;2022-07-09T04:45:51;100673.28;;;16.85;61.66
61742;BME280;47650;49.848;9.620;2022-07-09T04:48:19;100675.16;;;16.92;61.87
61742;BME280;47650;49.848;9.620;2022-07-09T04:50:46;100666.81;;;17.04;61.39
61742;BME280;47650;49.848;9.620;2022-07-09T04:53:12;100652.63;;;17.12;60.84
61742;BME280;47650;49.848;9.620;2022-07-09T04:55:37;100662.56;;;17.27;60.80
61742;BME280;47650;49.848;9.620;2022-07-09T04:58:03;100663.56;;;17.35;60.20
61742;BME280;47650;49.848;9.620;2022-07-09T05:00:28;100652.63;;;17.12;60.90
61742;BME280;47650;49.848;9.620;2022-07-09T05:02:54;100656.00;;;17.30;61.22
61742;BME280;47650;49.848;9.620;2022-07-09T05:05:20;100664.75;;;17.32;60.54
61742;BME280;47650;49.848;9.620;2022-07-09T05:07:48;100656.75;;;17.48;60.91
61742;BME280;47650;49.848;9.620;2022-07-09T05:10:13;100627.06;;;17.42;60.94
61742;BME280;47650;49.848;9.620;2022-07-09T05:12:39;100660.47;;;17.72;60.29
61742;BME280;47650;49.848;9.620;2022-07-09T05:15:07;100664.16;;;17.79;60.04
61742;BME280;47650;49.848;9.620;2022-07-09T05:17:34;100661.47;;;17.79;59.20
61742;BME280;47650;49.848;9.620;2022-07-09T05:20:00;100664.97;;;17.72;59.84
61742;BME280;47650;49.848;9.620;2022-07-09T05:22:26;100658.78;;;17.79;59.38
61742;BME280;47650;49.848;9.620;2022-07-09T05:24:51;100668.56;;;17.97;59.55
61742;BME280;47650;49.848;9.620;2022-07-09T05:27:16;100667.88;;;18.11;59.66
61742;BME280;47650;49.848;9.620;2022-07-09T05:29:42;100658.81;;;18.20;59.05
61742;BME280;47650;49.848;9.620;2022-07-09T05:32:07;100655.78;;;18.32;58.78
61742;BME280;47650;49.848;9.620;2022-07-09T05:34:32;100625.59;;;18.21;57.92
61742;BME280;47650;49.848;9.620;2022-07-09T05:36:58;100661.97;;;18.32;57.70
61742;BME280;47650;49.848;9.620;2022-07-09T05:39:23;100655.28;;;18.28;58.17
61742;BME280;47650;49.848;9.620;2022-07-09T05:41:50;100643.38;;;18.31;57.76
61742;BME280;47650;49.848;9.620;2022-07-09T05:44:25;100655.38;;;18.51;57.87
61742;BME280;47650;49.848;9.620;2022-07-09T05:46:50;100654.22;;;18.46;57.73
61742;BME280;47650;49.848;9.620;2022-07-09T05:49:16;100653.59;;;18.27;58.27
61742;BME280;47650;49.848;9.620;2022-07-09T05:51:41;100650.56;;;18.38;59.17
61742;BME280;47650;49.848;9.620;2022-07-09T05:54:08;100647.38;;;18.18;58.90
61742;BME280;47650;49.848;9.620;2022-07-09T05:56:44;100648.19;;;18.52;58.03
61742;BME280;47650;49.848;9.620;2022-07-09T05:59:10;100640.69;;;18.22;58.95
61742;BME280;47650;49.848;9.620;2022-07-09T06:01:36;100643.63;;;18.60;58.42
61742;BME280;47650;49.848;9.620;2022-07-09T06:04:05;100648.28;;;18.75;58.31
61742;BME280;47650;49.848;9.620;2022-07-09T06:06:30;100634.28;;;19.27;57.28
61742;BME280;47650;49.848;9.620;2022-07-09T06:09:05;100641.53;;;18.87;56.96
61742;BME280;47650;49.848;9.620;2022-07-09T06:11:31;100601.88;;;18.89;56.36
61742;BME280;47650;49.848;9.620;2022-07-09T06:13:56;100639.81;;;19.57;55.40
61742;BME280;47650;49.848;9.620;2022-07-09T06:16:22;100645.50;;;19.00;57.16
61742;BME280;47650;49.848;9.620;2022-07-09T06:18:47;100638.84;;;18.79;57.55
61742;BME280;47650;49.848;9.620;2022-07-09T06:21:12;100637.59;;;19.06;57.13
61742;BME280;47650;49.848;9.620;2022-07-09T06:23:50;100608.25;;;19.28;55.25
61742;BME280;47650;49.848;9.620;2022-07-09T06:26:17;100632.13;;;20.15;54.30
61742;BME280;47650;49.848;9.620;2022-07-09T06:28:47;100622.59;;;20.42;52.80
61742;BME280;47650;49.848;9.620;2022-07-09T06:31:13;100600.59;;;20.69;51.40
61742;BME280;47650;49.848;9.620;2022-07-09T06:33:46;100614.81;;;21.50;50.17
61742;BME280;47650;49.848;9.620;2022-07-09T06:36:11;100594.13;;;21.79;48.74
61742;BME280;47650;49.848;9.620;2022-07-09T06:38:39;100613.28;;;20.90;50.76
61742;BME280;47650;49.848;9.620;2022-07-09T06:41:52;100614.25;;;20.82;51.16
61742;BME280;47650;49.848;9.620;2022-07-09T06:44:17;100619.41;;;21.13;51.04
61742;BME280;47650;49.848;9.620;2022-07-09T06:46:42;100620.00;;;21.30;50.50
61742;BME280;47650;49.848;9.620;2022-07-09T06:49:10;100614.84;;;22.00;49.14
61742;BME280;47650;49.848;9.620;2022-07-09T06:51:37;100612.59;;;22.04;48.74
61742;BME280;47650;49.848;9.620;2022-07-09T06:54:04;100620.59;;;22.47;47.87
61742;BME280;47650;49.848;9.620;2022-07-09T06:56:32;100617.53;;;22.98;45.96
61742;BME280;47650;49.848;9.620;2022-07-09T06:59:04;100611.06;;;23.74;45.56
61742;BME280;47650;49.848;9.620;2022-07-09T07:01:29;100595.66;;;24.01;44.08
61742;BME280;47650;49.848;9.620;2022-07-09T07:03:55;100617.22;;;24.75;43.24
61742;BME280;47650;49.848;9.620;2022-07-09T07:06:22;100594.03;;;22.99;45.53
61742;BME280;47650;49.848;9.620;2022-07-09T07:08:47;100625.16;;;23.36;45.57
61742;BME280;47650;49.848;9.620;2022-07-09T07:11:12;100606.94;;;23.98;44.74
61742;BME280;47650;49.848;9.620;2022-07-09T07:13:40;100592.25;;;24.46;43.39
61742;BME280;47650;49.848;9.620;2022-07-09T07:16:11;100607.09;;;25.02;42.12
61742;BME280;47650;49.848;9.620;2022-07-09T07:18:53;100603.22;;;25.23;41.29
61742;BME280;47650;49.848;9.620;2022-07-09T07:21:18;100615.72;;;25.63;41.14
61742;BME280;47650;49.848;9.620;2022-07-09T07:23:44;100531.69;;;25.43;40.01
61742;BME280;47650;49.848;9.620;2022-07-09T07:26:15;100593.66;;;25.14;41.18
61742;BME280;47650;49.848;9.620;2022-07-09T07:29:16;100605.47;;;25.33;41.28
61742;BME280;47650;49.848;9.620;2022-07-09T07:31:53;100578.56;;;25.31;41.10
61742;BME280;47650;49.848;9.620;2022-07-09T07:34:18;100592.06;;;25.38;41.03
61742;BME280;47650;49.848;9.620;2022-07-09T07:36:53;100588.47;;;26.01;40.16
61742;BME280;47650;49.848;9.620;2022-07-09T07:39:22;100580.53;;;26.62;39.46
61742;BME280;47650;49.848;9.620;2022-07-09T07:41:54;100555.41;;;26.78;38.96
61742;BME280;47650;49.848;9.620;2022-07-09T07:44:39;100577.25;;;27.63;37.74
61742;BME280;47650;49.848;9.620;2022-07-09T07:47:04;100580.63;;;28.12;36.33
61742;BME280;47650;49.848;9.620;2022-07-09T07:49:29;100538.09;;;28.63;35.50
61742;BME280;47650;49.848;9.620;2022-07-09T07:51:56;100575.84;;;29.24;34.06
61742;BME280;47650;49.848;9.620;2022-07-09T07:54:22;100574.66;;;28.39;35.38
61742;BME280;47650;49.848;9.620;2022-07-09T07:56:48;100545.59;;;26.77;37.74
61742;BME280;47650;49.848;9.620;2022-07-09T07:59:15;100584.13;;;27.77;36.55
61742;BME280;47650;49.848;9.620;2022-07-09T08:01:47;100563.28;;;27.71;36.22
61742;BME280;47650;49.848;9.620;2022-07-09T08:04:12;100565.16;;;27.58;36.87
61742;BME280;47650;49.848;9.620;2022-07-09T08:06:37;100567.22;;;26.91;38.08
61742;BME280;47650;49.848;9.620;2022-07-09T08:09:03;100579.16;;;26.53;39.71
61742;BME280;47650;49.848;9.620;2022-07-09T08:11:29;100575.81;;;26.88;39.20
61742;BME280;47650;49.848;9.620;2022-07-09T08:13:54;100578.97;;;25.35;41.71
61742;BME280;47650;49.848;9.620;2022-07-09T08:16:20;100574.81;;;25.19;42.86
61742;BME280;47650;49.848;9.620;2022-07-09T08:18:46;100563.00;;;26.39;40.79
61742;BME280;47650;49.848;9.620;2022-07-09T08:21:11;100553.78;;;26.77;39.65
61742;BME280;47650;49.848;9.620;2022-07-09T08:23:37;100559.25;;;27.62;38.38
61742;BME280;47650;49.848;9.620;2022-07-09T08:26:23;100525.81;;;28.25;36.12
61742;BME280;47650;49.848;9.620;2022-07-09T08:28:49;100558.31;;;26.46;38.33
61742;BME280;47650;49.848;9.620;2022-07-09T08:31:17;100543.78;;;27.32;36.34
61742;BME280;47650;49.848;9.620;2022-07-09T08:33:43;100553.25;;;26.99;38.46
61742;BME280;47650;49.848;9.620;2022-07-09T08:36:09;100554.38;;;26.24;38.46
61742;BME280;47650;49.848;9.620;2022-07-09T08:38:34;100543.19;;;25.70;39.19
61742;BME280;47650;49.848;9.620;2022-07-09T08:41:04;100550.00;;;26.04;38.79
61742;BME280;47650;49.848;9.620;2022-07-09T08:43:35;100546.94;;;26.87;36.90
61742;BME280;47650;49.848;9.620;2022-07-09T08:46:00;100548.69;;;26.07;38.66
61742;BME280;47650;49.848;9.620;2022-07-09T08:48:27;100543.72;;;27.08;37.56
61742;BME280;47650;49.848;9.620;2022-07-09T08:50:53;100540.38;;;27.06;38.28
61742;BME280;47650;49.848;9.620;2022-07-09T08:53:19;100497.22;;;25.68;38.18
61742;BME280;47650;49.848;9.620;2022-07-09T08:55:45;100547.59;;;26.15;38.03
61742;BME280;47650;49.848;9.620;2022-07-09T08:58:14;100542.59;;;25.86;38.57
61742;BME280;47650;49.848;9.620;2022-07-09T09:00:40;100550.00;;;25.15;40.04
61742;BME280;47650;49.848;9.620;2022-07-09T09:03:10;100556.47;;;25.21;39.53
61742;BME280;47650;49.848;9.620;2022-07-09T09:05:35;100540.94;;;25.85;38.63
61742;BME280;47650;49.848;9.620;2022-07-09T09:08:16;100534.56;;;24.84;40.57
61742;BME280;47650;49.848;9.620;2022-07-09T09:10:45;100532.34;;;23.82;42.31
61742;BME280;47650;49.848;9.620;2022-07-09T09:13:16;100556.69;;;23.49;43.24
61742;BME280;47650;49.848;9.620;2022-07-09T09:15:44;100539.44;;;23.83;42.90
61742;BME280;47650;49.848;9.620;2022-07-09T09:18:15;100560.66;;;23.73;43.08
61742;BME280;47650;49.848;9.620;2022-07-09T09:20:44;100551.88;;;23.18;44.31
61742;BME280;47650;49.848;9.620;2022-07-09T09:23:16;100557.09;;;23.26;44.16
61742;BME280;47650;49.848;9.620;2022-07-09T09:25:42;100552.97;;;23.97;43.07
61742;BME280;47650;49.848;9.620;2022-07-09T09:28:08;100546.47;;;25.15;39.69
61742;BME280;47650;49.848;9.620;2022-07-09T09:30:41;100532.69;;;27.45;35.74
61742;BME280;47650;49.848;9.620;2022-07-09T09:33:07;100533.06;;;27.49;34.97
61742;BME280;47650;49.848;9.620;2022-07-09T09:35:34;100521.31;;;26.94;36.42
61742;BME280;47650;49.848;9.620;2022-07-09T09:37:59;100520.41;;;27.12;36.17
61742;BME280;47650;49.848;9.620;2022-07-09T09:40:25;100538.06;;;27.21;35.66
61742;BME280;47650;49.848;9.620;2022-07-09T09:42:52;100536.06;;;27.17;35.61
61742;BME280;47650;49.848;9.620;2022-07-09T09:45:23;100537.91;;;26.74;36.58
61742;BME280;47650;49.848;9.620;2022-07-09T09:47:51;100536.09;;;26.50;36.96
61742;BME280;47650;49.848;9.620;2022-07-09T09:50:21;100545.81;;;25.26;39.21
61742;BME280;47650;49.848;9.620;2022-07-09T09:52:50;100538.06;;;25.30;39.17
61742;BME280;47650;49.848;9.620;2022-07-09T09:55:17;100519.00;;;25.37;38.60
61742;BME280;47650;49.848;9.620;2022-07-09T09:57:43;100519.22;;;25.85;38.11
61742;BME280;47650;49.848;9.620;2022-07-09T10:00:10;100516.34;;;24.91;39.64
61742;BME280;47650;49.848;9.620;2022-07-09T10:02:43;100529.91;;;25.55;38.07
61742;BME280;47650;49.848;9.620;2022-07-09T10:05:08;100523.34;;;27.65;34.83
61742;BME280;47650;49.848;9.620;2022-07-09T10:07:35;100507.16;;;28.46;32.75
61742;BME280;47650;49.848;9.620;2022-07-09T10:10:00;100514.81;;;26.10;36.80
61742;BME280;47650;49.848;9.620;2022-07-09T10:12:36;100514.00;;;28.20;33.24
61742;BME280;47650;49.848;9.620;2022-07-09T10:15:26;100510.44;;;28.19;33.18
61742;BME280;47650;49.848;9.620;2022-07-09T10:17:52;100504.97;;;28.31;33.63
61742;BME280;47650;49.848;9.620;2022-07-09T10:20:29;100517.53;;;25.84;36.88
61742;BME280;47650;49.848;9.620;2022-07-09T10:22:56;100511.06;;;27.74;34.20
61742;BME280;47650;49.848;9.620;2022-07-09T10:25:27;100520.31;;;27.19;34.41
61742;BME280;47650;49.848;9.620;2022-07-09T10:27:52;100474.09;;;27.00;34.30
61742;BME280;47650;49.848;9.620;2022-07-09T10:30:32;100515.09;;;27.17;34.08
61742;BME280;47650;49.848;9.620;2022-07-09T10:33:08;100482.28;;;28.42;31.65
61742;BME280;47650;49.848;9.620;2022-07-09T10:35:47;100497.25;;;29.99;30.04
61742;BME280;47650;49.848;9.620;2022-07-09T10:38:13;100500.78;;;31.15;27.63
61742;BME280;47650;49.848;9.620;2022-07-09T10:40:41;100499.72;;;28.41;31.32
61742;BME280;47650;49.848;9.620;2022-07-09T10:43:07;100488.69;;;28.77;31.51
61742;BME280;47650;49.848;9.620;2022-07-09T10:45:38;100500.91;;;28.33;32.95
61742;BME280;47650;49.848;9.620;2022-07-09T10:48:05;100475.03;;;29.39;30.35
61742;BME280;47650;49.848;9.620;2022-07-09T10:50:32;100476.53;;;30.74;29.19
61742;BME280;47650;49.848;9.620;2022-07-09T10:53:00;100474.41;;;31.79;28.37
61742;BME280;47650;49.848;9.620;2022-07-09T10:55:27;100470.78;;;29.83;29.89
61742;BME280;47650;49.848;9.620;2022-07-09T10:57:54;100457.66;;;29.29;31.12
61742;BME280;47650;49.848;9.620;2022-07-09T11:00:30;100464.53;;;28.68;32.20
61742;BME280;47650;49.848;9.620;2022-07-09T11:02:57;100477.41;;;28.04;32.98
61742;BME280;47650;49.848;9.620;2022-07-09T11:05:24;100465.53;;;28.62;32.13
61742;BME280;47650;49.848;9.620;2022-07-09T11:08:03;100473.03;;;28.43;32.59
61742;BME280;47650;49.848;9.620;2022-07-09T11:10:35;100451.03;;;32.14;27.00
61742;BME280;47650;49.848;9.620;2022-07-09T11:13:00;100437.41;;;32.50;26.45
61742;BME280;47650;49.848;9.620;2022-07-09T11:15:28;100442.94;;;31.06;28.12
61742;BME280;47650;49.848;9.620;2022-07-09T11:17:56;100411.78;;;34.43;23.58
61742;BME280;47650;49.848;9.620;2022-07-09T11:20:22;100422.22;;;34.46;23.44
61742;BME280;47650;49.848;9.620;2022-07-09T11:22:49;100414.63;;;35.07;22.25
61742;BME280;47650;49.848;9.620;2022-07-09T11:25:16;100406.81;;;36.15;21.42
61742;BME280;47650;49.848;9.620;2022-07-09T11:27:42;100408.88;;;35.32;21.77
61742;BME280;47650;49.848;9.620;2022-07-09T11:30:16;100418.88;;;34.54;23.46
61742;BME280;47650;49.848;9.620;2022-07-09T11:32:42;100391.13;;;37.34;20.58
61742;BME280;47650;49.848;9.620;2022-07-09T11:35:08;100416.59;;;33.26;24.21
61742;BME280;47650;49.848;9.620;2022-07-09T11:37:36;100402.88;;;35.79;20.98
61742;BME280;47650;49.848;9.620;2022-07-09T11:40:02;100408.94;;;35.81;21.45
61742;BME280;47650;49.848;9.620;2022-07-09T11:42:28;100399.47;;;34.35;22.31
61742;BME280;47650;49.848;9.620;2022-07-09T11:44:59;100406.72;;;32.84;24.02
61742;BME280;47650;49.848;9.620;2022-07-09T11:47:35;100396.03;;;30.98;26.97
61742;BME280;47650;49.848;9.620;2022-07-09T11:50:06;100424.16;;;29.16;29.89
61742;BME280;47650;49.848;9.620;2022-07-09T11:52:32;100400.53;;;32.20;25.89
61742;BME280;47650;49.848;9.620;2022-07-09T11:55:07;100405.63;;;31.38;26.87
61742;BME280;47650;49.848;9.620;2022-07-09T11:57:36;100381.38;;;32.46;25.12
61742;BME280;47650;49.848;9.620;2022-07-09T12:00:05;100395.63;;;31.21;27.10
61742;BME280;47650;49.848;9.620;2022-07-09T12:02:38;100379.44;;;30.50;28.03
61742;BME280;47650;49.848;9.620;2022-07-09T12:05:04;100395.06;;;30.87;28.08
61742;BME280;47650;49.848;9.620;2022-07-09T12:07:30;100403.56;;;29.65;29.67
61742;BME280;47650;49.848;9.620;2022-07-09T12:10:08;100380.50;;;32.09;26.08
61742;BME280;47650;49.848;9.620;2022-07-09T12:12:35;100368.25;;;33.09;24.65
61742;BME280;47650;49.848;9.620;2022-07-09T12:15:02;100380.59;;;31.72;26.59
61742;BME280;47650;49.848;9.620;2022-07-09T12:17:30;100367.88;;;33.57;23.26
61742;BME280;47650;49.848;9.620;2022-07-09T12:19:56;100355.31;;;35.87;21.86
61742;BME280;47650;49.848;9.620;2022-07-09T12:22:22;100361.78;;;33.60;23.82
61742;BME280;47650;49.848;9.620;2022-07-09T12:24:48;100363.00;;;35.42;21.80
61742;BME280;47650;49.848;9.620;2022-07-09T12:27:16;100343.53;;;36.00;20.89
61742;BME280;47650;49.848;9.620;2022-07-09T12:29:41;100346.97;;;35.92;20.81
61742;BME280;47650;49.848;9.620;2022-07-09T12:32:07;100341.94;;;35.02;21.60
61742;BME280;47650;49.848;9.620;2022-07-09T12:34:32;100324.81;;;33.27;24.45
61742;BME280;47650;49.848;9.620;2022-07-09T12:36:57;100339.31;;;33.48;24.32
61742;BME280;47650;49.848;9.620;2022-07-09T12:39:24;100336.19;;;34.30;22.85
61742;BME280;47650;49.848;9.620;2022-07-09T12:41:49;100313.31;;;35.47;21.52
61742;BME280;47650;49.848;9.620;2022-07-09T12:44:15;100285.16;;;39.94;16.82
61742;BME280;47650;49.848;9.620;2022-07-09T12:46:40;100299.50;;;37.77;18.29
61742;BME280;47650;49.848;9.620;2022-07-09T12:49:06;100273.91;;;38.30;17.36
61742;BME280;47650;49.848;9.620;2022-07-09T12:51:34;100288.38;;;34.50;21.15
61742;BME280;47650;49.848;9.620;2022-07-09T12:53:59;100306.88;;;34.79;21.62
61742;BME280;47650;49.848;9.620;2022-07-09T12:56:25;100297.59;;;35.71;20.56